Time;durP1;ratioP1;P1;durP2;ratioP2;P2;SDS_P1;SDS_P2;PMS_P1;PMS_P2;Temp;Humidity;BMP_temperature;BMP_pressure;BME280_temperature;BME280_humidity;BME280_pressure;Samples;Min_cycle;Max_cycle;Signal;HPM_P1;HPM_P2
2024/01/21 00:01:39;;;;;;;44.30;28.95;;;-6.90;99.90;;;;;;5072592;28;20267;-71
2024/01/21 00:04:24;;;;;;;40.78;28.40;;;-7.00;99.90;;;;;;5072510;28;20780;-71
2024/01/21 00:07:10;;;;;;;49.88;32.40;;;-6.90;99.90;;;;;;5071427;28;20206;-71
2024/01/21 00:09:55;;;;;;;42.10;29.33;;;-7.10;99.90;;;;;;5069103;28;20202;-71
2024/01/21 00:12:41;;;;;;;51.78;32.28;;;-7.30;99.90;;;;;;5053682;28;20229;-71
2024/01/21 00:15:26;;;;;;;46.58;31.60;;;-7.40;99.90;;;;;;5072169;28;20203;-71
2024/01/21 00:18:15;;;;;;;45.20;28.90;;;-7.30;99.90;;;;;;5070108;28;20219;-71
2024/01/21 00:21:00;;;;;;;55.55;32.83;;;-7.20;99.90;;;;;;5068053;28;20784;-71
2024/01/21 00:23:46;;;;;;;55.88;34.60;;;-7.50;99.90;;;;;;5071413;28;20286;-71
2024/01/21 00:26:32;;;;;;;52.90;32.03;;;-7.40;99.90;;;;;;5071878;28;20694;-71
2024/01/21 00:29:18;;;;;;;43.90;28.50;;;-7.40;99.90;;;;;;5070392;28;20733;-71
2024/01/21 00:32:04;;;;;;;49.17;31.15;;;-7.30;99.90;;;;;;5067743;28;20609;-71
2024/01/21 00:34:51;;;;;;;47.15;30.77;;;-7.50;99.90;;;;;;5067191;28;20213;-71
2024/01/21 00:37:38;;;;;;;48.83;31.80;;;-7.40;99.90;;;;;;5058279;28;20456;-71
2024/01/21 00:40:24;;;;;;;49.47;31.48;;;-7.20;99.90;;;;;;5071476;28;20247;-71
2024/01/21 00:43:09;;;;;;;55.95;33.15;;;-7.20;99.90;;;;;;5065165;28;20212;-71
2024/01/21 00:45:55;;;;;;;52.33;32.38;;;-7.30;99.90;;;;;;5071959;28;20335;-71
2024/01/21 00:48:41;;;;;;;48.90;30.27;;;-7.30;99.90;;;;;;5058104;28;20323;-70
2024/01/21 00:51:28;;;;;;;47.58;31.30;;;-7.30;99.90;;;;;;5071165;28;20291;-71
2024/01/21 00:54:13;;;;;;;45.47;28.98;;;-7.30;99.90;;;;;;5071652;28;20208;-71
2024/01/21 00:56:59;;;;;;;50.75;27.98;;;-7.50;99.90;;;;;;5071908;28;20197;-71
2024/01/21 00:59:45;;;;;;;53.45;30.08;;;-7.50;99.90;;;;;;5059376;28;20225;-71
2024/01/21 01:02:31;;;;;;;48.55;29.45;;;-7.40;99.90;;;;;;5052122;28;20351;-71
2024/01/21 01:05:16;;;;;;;42.17;27.77;;;-7.70;99.90;;;;;;5060851;28;20270;-71
2024/01/21 01:08:04;;;;;;;54.08;32.88;;;-7.50;99.90;;;;;;5051608;28;20204;-71
2024/01/21 01:10:49;;;;;;;53.33;31.35;;;-7.40;99.90;;;;;;5046737;28;20273;-71
2024/01/21 01:13:35;;;;;;;51.63;30.15;;;-7.40;99.90;;;;;;5060437;28;20209;-71
2024/01/21 01:16:20;;;;;;;51.53;29.50;;;-7.70;99.90;;;;;;5051815;28;20216;-71
2024/01/21 01:19:06;;;;;;;49.75;29.50;;;-7.50;99.90;;;;;;5059904;28;20201;-71
2024/01/21 01:21:52;;;;;;;56.15;30.05;;;-7.50;99.90;;;;;;5058873;28;20240;-71
2024/01/21 01:24:39;;;;;;;46.00;29.33;;;-7.60;99.90;;;;;;5045151;28;20201;-71
2024/01/21 01:27:24;;;;;;;53.75;28.50;;;-7.60;99.90;;;;;;5051800;28;20327;-71
2024/01/21 01:30:11;;;;;;;48.65;28.20;;;-7.90;99.90;;;;;;5060387;28;20264;-71
2024/01/21 01:32:56;;;;;;;49.00;28.98;;;-7.90;99.90;;;;;;5055845;28;20575;-71
2024/01/21 01:35:42;;;;;;;43.72;27.75;;;-7.90;99.90;;;;;;5053091;28;20320;-71
2024/01/21 01:38:28;;;;;;;45.10;27.88;;;-8.00;99.90;;;;;;5059156;28;20244;-71
2024/01/21 01:41:15;;;;;;;43.95;27.85;;;-8.00;99.90;;;;;;5059909;28;20233;-71
2024/01/21 01:44:02;;;;;;;45.88;29.20;;;-8.10;99.90;;;;;;5052148;28;20201;-71
2024/01/21 01:46:48;;;;;;;46.17;30.00;;;-7.90;99.90;;;;;;5046259;28;20233;-71
2024/01/21 01:49:34;;;;;;;48.58;29.27;;;-8.10;99.90;;;;;;5055205;28;20204;-71
2024/01/21 01:52:20;;;;;;;49.83;29.52;;;-8.10;99.90;;;;;;5058178;28;20225;-71
2024/01/21 01:55:06;;;;;;;46.30;27.00;;;-8.00;99.90;;;;;;5054030;28;20701;-71
2024/01/21 01:57:53;;;;;;;45.67;29.67;;;-7.90;99.90;;;;;;5054268;28;20205;-71
2024/01/21 02:00:39;;;;;;;40.88;28.00;;;-7.80;99.90;;;;;;5065484;28;20650;-71
2024/01/21 02:03:25;;;;;;;45.33;27.88;;;-7.80;99.90;;;;;;5054591;28;20213;-71
2024/01/21 02:06:11;;;;;;;40.83;27.58;;;-7.80;99.90;;;;;;5063636;28;20205;-71
2024/01/21 02:08:56;;;;;;;53.85;29.05;;;-7.80;99.90;;;;;;5054998;28;20216;-71
2024/01/21 02:11:43;;;;;;;46.55;28.67;;;-7.80;99.90;;;;;;5062405;28;20219;-71
2024/01/21 02:14:30;;;;;;;45.17;28.35;;;-7.80;99.90;;;;;;5059366;28;20276;-71
2024/01/21 02:17:15;;;;;;;45.08;27.52;;;-8.00;99.90;;;;;;5052733;28;20204;-71
2024/01/21 02:20:01;;;;;;;50.35;32.05;;;-8.00;99.90;;;;;;5054872;28;20202;-71
2024/01/21 02:22:47;;;;;;;53.30;32.42;;;-8.10;99.90;;;;;;5064117;28;20348;-71
2024/01/21 02:25:34;;;;;;;53.67;31.00;;;-8.20;99.90;;;;;;5055156;28;20343;-71
2024/01/21 02:28:20;;;;;;;56.05;30.92;;;-8.00;99.90;;;;;;5053229;28;20209;-71
2024/01/21 02:31:05;;;;;;;43.10;29.48;;;-8.00;99.90;;;;;;5059400;28;20298;-71
2024/01/21 02:33:51;;;;;;;46.58;29.30;;;-7.80;99.90;;;;;;5054574;28;20201;-71
2024/01/21 02:36:37;;;;;;;45.72;27.85;;;-7.70;99.90;;;;;;5049895;28;20220;-71
2024/01/21 02:39:22;;;;;;;46.28;29.60;;;-7.60;99.90;;;;;;5060150;28;20236;-71
2024/01/21 02:42:10;;;;;;;51.70;30.75;;;-7.70;99.90;;;;;;5059934;28;20371;-71
2024/01/21 02:44:55;;;;;;;45.03;30.00;;;-7.80;99.90;;;;;;5054932;28;20207;-71
2024/01/21 02:47:41;;;;;;;44.08;27.30;;;-7.90;99.90;;;;;;5045784;28;20280;-71
2024/01/21 02:50:27;;;;;;;43.67;27.88;;;-7.90;99.90;;;;;;5055277;28;20201;-71
2024/01/21 02:53:12;;;;;;;46.78;28.67;;;-8.00;99.90;;;;;;5058165;28;20209;-71
2024/01/21 02:55:58;;;;;;;44.70;27.52;;;-7.80;99.90;;;;;;5051900;28;20291;-72
2024/01/21 02:58:45;;;;;;;54.78;30.52;;;-7.70;99.90;;;;;;5046157;28;20287;-71
2024/01/21 03:01:30;;;;;;;58.83;31.52;;;-7.70;99.90;;;;;;5061493;28;20241;-71
2024/01/21 03:04:16;;;;;;;46.45;28.75;;;-7.70;99.90;;;;;;5054012;28;20205;-71
2024/01/21 03:07:02;;;;;;;47.65;30.85;;;-7.70;99.90;;;;;;5052141;28;20411;-71
2024/01/21 03:09:47;;;;;;;47.20;30.83;;;-7.90;99.90;;;;;;5046779;28;20209;-71
2024/01/21 03:12:35;;;;;;;48.45;30.98;;;-7.90;99.90;;;;;;5057321;28;20323;-71
2024/01/21 03:15:22;;;;;;;45.08;29.65;;;-7.80;99.90;;;;;;5057611;28;20225;-71
2024/01/21 03:18:08;;;;;;;48.33;30.23;;;-7.80;99.90;;;;;;5056167;28;20205;-70
2024/01/21 03:20:53;;;;;;;48.65;30.42;;;-7.70;99.90;;;;;;5054678;28;20694;-71
2024/01/21 03:23:39;;;;;;;48.28;29.08;;;-7.90;99.90;;;;;;5053278;28;20215;-71
2024/01/21 03:26:25;;;;;;;50.65;29.92;;;-7.90;99.90;;;;;;5059470;28;20330;-71
2024/01/21 03:29:11;;;;;;;50.75;29.70;;;-8.00;99.90;;;;;;5059242;28;20211;-71
2024/01/21 03:31:58;;;;;;;48.90;29.13;;;-8.00;99.90;;;;;;5059420;28;20718;-71
2024/01/21 03:34:44;;;;;;;42.17;26.95;;;-8.00;99.90;;;;;;5049818;28;20707;-71
2024/01/21 03:37:30;;;;;;;49.22;29.92;;;-7.90;99.90;;;;;;5054970;28;20212;-71
2024/01/21 03:40:16;;;;;;;41.50;27.17;;;-7.90;99.90;;;;;;5057545;28;20309;-71
2024/01/21 03:43:01;;;;;;;51.08;28.90;;;-7.90;99.90;;;;;;5056101;28;20592;-71
2024/01/21 03:45:47;;;;;;;45.53;28.70;;;-7.80;99.90;;;;;;5054915;28;20262;-71
2024/01/21 03:48:34;;;;;;;44.42;27.35;;;-7.80;99.90;;;;;;5057210;28;20274;-71
2024/01/21 03:51:20;;;;;;;48.35;27.70;;;-7.90;99.90;;;;;;5062320;28;20227;-71
2024/01/21 03:54:05;;;;;;;50.33;28.25;;;-7.90;99.90;;;;;;5055381;28;20205;-71
2024/01/21 03:56:51;;;;;;;47.97;28.00;;;-7.80;99.90;;;;;;5061312;28;20564;-71
2024/01/21 03:59:36;;;;;;;43.00;28.02;;;-7.90;99.90;;;;;;5059187;28;20204;-71
2024/01/21 04:02:23;;;;;;;47.13;28.10;;;-7.90;99.90;;;;;;5064518;28;20373;-71
2024/01/21 04:05:11;;;;;;;45.08;27.63;;;-8.00;99.90;;;;;;5063831;28;20893;-71
2024/01/21 04:07:59;;;;;;;46.40;28.33;;;-7.90;99.90;;;;;;5057598;28;20705;-71
2024/01/21 04:10:45;;;;;;;44.30;27.05;;;-7.90;99.90;;;;;;5054648;28;20271;-71
2024/01/21 04:13:30;;;;;;;47.33;27.65;;;-7.90;99.90;;;;;;5065536;28;20590;-71
2024/01/21 04:16:16;;;;;;;44.90;28.05;;;-8.00;99.90;;;;;;5058852;28;20208;-71
2024/01/21 04:19:02;;;;;;;49.28;28.90;;;-8.20;99.90;;;;;;5064525;28;20336;-71
2024/01/21 04:21:49;;;;;;;44.90;27.50;;;-8.10;99.90;;;;;;5070507;28;20225;-71
2024/01/21 04:24:35;;;;;;;42.00;28.17;;;-8.00;99.90;;;;;;5065228;28;20578;-71
2024/01/21 04:27:21;;;;;;;52.30;29.13;;;-7.90;99.90;;;;;;5064062;28;20212;-71
2024/01/21 04:30:07;;;;;;;46.55;26.38;;;-7.90;99.90;;;;;;5056579;28;20228;-71
2024/01/21 04:32:54;;;;;;;42.55;28.35;;;-7.90;99.90;;;;;;5051221;28;20201;-71
2024/01/21 04:35:39;;;;;;;48.08;28.52;;;-7.70;99.90;;;;;;5057934;28;20792;-71
2024/01/21 04:38:27;;;;;;;45.58;27.40;;;-7.80;99.90;;;;;;5063749;28;20790;-71
2024/01/21 04:41:13;;;;;;;51.83;29.33;;;-7.70;99.90;;;;;;5057021;28;20295;-71
2024/01/21 04:43:59;;;;;;;47.60;28.20;;;-7.80;99.90;;;;;;5052240;28;20201;-71
2024/01/21 04:46:44;;;;;;;45.53;27.13;;;-7.80;99.90;;;;;;5049849;28;20577;-71
2024/01/21 04:49:30;;;;;;;48.60;27.13;;;-7.80;99.90;;;;;;5059339;28;20209;-71
2024/01/21 04:52:16;;;;;;;49.47;28.38;;;-7.80;99.90;;;;;;5064056;28;20276;-71
2024/01/21 04:55:04;;;;;;;44.40;28.90;;;-7.70;99.90;;;;;;5059564;28;20256;-70
2024/01/21 04:57:49;;;;;;;47.58;29.60;;;-7.60;99.90;;;;;;5052900;28;20205;-71
2024/01/21 05:00:35;;;;;;;48.40;30.23;;;-7.50;99.90;;;;;;5056816;28;20704;-71
2024/01/21 05:03:21;;;;;;;50.60;28.95;;;-7.70;99.90;;;;;;5057281;28;20670;-71
2024/01/21 05:06:06;;;;;;;50.58;26.83;;;-7.70;99.90;;;;;;5061989;28;20205;-71
2024/01/21 05:08:52;;;;;;;52.63;29.30;;;-7.70;99.90;;;;;;5056199;28;20197;-71
2024/01/21 05:11:39;;;;;;;50.35;29.77;;;-7.70;99.90;;;;;;5062580;28;20224;-71
2024/01/21 05:14:25;;;;;;;53.75;28.25;;;-7.80;99.90;;;;;;5058222;28;20332;-71
2024/01/21 05:17:11;;;;;;;49.60;27.60;;;-7.90;99.90;;;;;;5069174;28;20207;-71
2024/01/21 05:19:56;;;;;;;46.63;27.67;;;-8.00;99.90;;;;;;5056254;28;20221;-71
2024/01/21 05:22:42;;;;;;;51.85;29.05;;;-8.00;99.90;;;;;;5060851;28;20227;-71
2024/01/21 05:25:28;;;;;;;44.40;26.13;;;-8.10;99.90;;;;;;5057712;28;20270;-71
2024/01/21 05:28:15;;;;;;;55.47;29.25;;;-8.20;99.90;;;;;;5061213;28;20255;-71
2024/01/21 05:31:01;;;;;;;50.05;28.85;;;-7.90;99.90;;;;;;5057665;28;20229;-71
2024/01/21 05:33:47;;;;;;;52.88;29.23;;;-8.00;99.90;;;;;;5055829;28;20209;-71
2024/01/21 05:36:32;;;;;;;53.90;29.60;;;-7.90;99.90;;;;;;5057855;28;20208;-71
2024/01/21 05:39:18;;;;;;;49.03;29.70;;;-7.90;99.90;;;;;;5057732;28;20209;-71
2024/01/21 05:42:05;;;;;;;60.92;30.58;;;-7.90;99.90;;;;;;5052398;28;20295;-71
2024/01/21 05:44:52;;;;;;;50.38;29.35;;;-7.80;99.90;;;;;;5050796;28;20211;-71
2024/01/21 05:47:38;;;;;;;55.70;29.90;;;-7.80;99.90;;;;;;5062999;28;20237;-71
2024/01/21 05:50:23;;;;;;;50.35;30.40;;;-7.80;99.90;;;;;;5064029;28;20359;-70
2024/01/21 05:53:09;;;;;;;52.05;29.60;;;-7.70;99.90;;;;;;5064279;28;20200;-71
2024/01/21 05:55:55;;;;;;;54.42;28.48;;;-7.50;99.90;;;;;;5051032;28;20225;-71
2024/01/21 05:58:40;;;;;;;52.63;28.75;;;-7.60;99.90;;;;;;5064584;28;20209;-71
2024/01/21 06:01:27;;;;;;;51.30;28.23;;;-7.60;99.90;;;;;;5069558;28;20224;-70
2024/01/21 06:04:14;;;;;;;54.72;30.50;;;-7.60;99.90;;;;;;5057249;28;20210;-71
2024/01/21 06:06:59;;;;;;;57.28;30.35;;;-7.50;99.90;;;;;;5059676;28;20223;-71
2024/01/21 06:09:46;;;;;;;51.85;30.52;;;-7.50;99.90;;;;;;5056392;28;20205;-71
2024/01/21 06:12:31;;;;;;;53.45;31.08;;;-7.50;99.90;;;;;;5058279;28;20350;-71
2024/01/21 06:15:17;;;;;;;59.05;29.20;;;-7.60;99.90;;;;;;5055209;28;20208;-71
2024/01/21 06:18:05;;;;;;;52.63;28.05;;;-7.60;99.90;;;;;;5052221;28;20201;-71
2024/01/21 06:20:50;;;;;;;58.17;28.65;;;-7.80;99.90;;;;;;5054397;28;20224;-71
2024/01/21 06:23:36;;;;;;;63.38;29.70;;;-7.80;99.90;;;;;;5062924;28;20208;-71
2024/01/21 06:26:22;;;;;;;53.38;29.88;;;-7.60;99.90;;;;;;5062452;28;20697;-71
2024/01/21 06:29:08;;;;;;;49.70;27.05;;;-7.40;99.90;;;;;;5058663;28;20229;-71
2024/01/21 06:31:54;;;;;;;48.92;28.13;;;-7.40;99.90;;;;;;5051278;28;20317;-71
2024/01/21 06:34:41;;;;;;;51.33;28.23;;;-7.60;99.90;;;;;;5061153;28;20268;-71
2024/01/21 06:37:27;;;;;;;52.38;26.90;;;-7.40;99.90;;;;;;5058749;28;20206;-71
2024/01/21 06:40:13;;;;;;;49.05;26.75;;;-7.20;99.90;;;;;;5064577;28;20578;-71
2024/01/21 06:42:58;;;;;;;48.63;28.27;;;-7.10;99.90;;;;;;5057107;28;20234;-71
2024/01/21 06:45:44;;;;;;;51.75;28.50;;;-7.20;99.90;;;;;;5058686;28;20200;-71
2024/01/21 06:48:29;;;;;;;64.78;27.77;;;-7.20;99.90;;;;;;5065877;28;20275;-71
2024/01/21 06:51:31;;;;;;;54.88;30.42;;;-7.10;99.90;;;;;;5069515;28;20224;-71
2024/01/21 06:54:17;;;;;;;58.45;30.00;;;-7.20;99.90;;;;;;5066192;28;20307;-71
2024/01/21 06:57:03;;;;;;;58.22;30.17;;;-7.30;99.90;;;;;;5059400;28;20208;-71
2024/01/21 06:59:49;;;;;;;66.30;30.90;;;-7.20;99.90;;;;;;5070472;28;20200;-71
2024/01/21 07:02:35;;;;;;;49.22;27.30;;;-7.20;99.90;;;;;;5068235;28;20244;-71
2024/01/21 07:05:21;;;;;;;56.75;30.20;;;-7.10;99.90;;;;;;5069344;28;20234;-71
2024/01/21 07:08:08;;;;;;;52.55;28.17;;;-7.00;99.90;;;;;;5071249;28;20208;-71
2024/01/21 07:10:54;;;;;;;53.70;29.50;;;-6.90;99.90;;;;;;5067212;28;20220;-71
2024/01/21 07:13:40;;;;;;;56.42;28.52;;;-6.80;99.90;;;;;;5061279;28;20574;-71
2024/01/21 07:16:25;;;;;;;45.35;25.17;;;-6.70;99.90;;;;;;5066031;28;20698;-71
2024/01/21 07:19:11;;;;;;;47.15;26.65;;;-6.70;99.90;;;;;;5067313;28;20617;-71
2024/01/21 07:21:57;;;;;;;52.13;28.05;;;-6.90;99.90;;;;;;5062598;28;20310;-71
2024/01/21 07:24:44;;;;;;;48.58;27.75;;;-7.10;99.90;;;;;;5063715;28;20228;-69
2024/01/21 07:27:29;;;;;;;53.97;29.60;;;-7.20;99.90;;;;;;5071172;28;20746;-70
2024/01/21 07:30:15;;;;;;;62.75;33.45;;;-7.40;99.90;;;;;;5065196;28;20799;-69
2024/01/21 07:33:01;;;;;;;52.67;30.67;;;-7.30;99.90;;;;;;5064218;28;20266;-70
2024/01/21 07:35:49;;;;;;;55.80;31.33;;;-7.10;99.90;;;;;;5066979;28;20208;-69
2024/01/21 07:38:35;;;;;;;44.72;27.50;;;-7.10;99.90;;;;;;5070537;28;20204;-70
2024/01/21 07:41:22;;;;;;;47.53;26.48;;;-7.10;99.90;;;;;;5065326;28;20250;-70
2024/01/21 07:44:08;;;;;;;89.65;37.45;;;-7.10;99.90;;;;;;5061285;28;20400;-69
2024/01/21 07:46:54;;;;;;;47.55;26.73;;;-7.00;99.90;;;;;;5068162;28;20197;-69
2024/01/21 07:49:40;;;;;;;62.55;33.17;;;-6.90;99.90;;;;;;5067804;28;20261;-70
2024/01/21 07:52:25;;;;;;;66.57;37.05;;;-6.80;99.90;;;;;;5063429;28;20228;-70
2024/01/21 07:55:11;;;;;;;67.82;38.85;;;-6.70;99.90;;;;;;5066814;28;20271;-70
2024/01/21 07:57:58;;;;;;;63.30;37.17;;;-6.80;99.90;;;;;;5053984;28;20225;-69
2024/01/21 08:00:43;;;;;;;80.60;40.90;;;-6.80;99.90;;;;;;5060598;28;20217;-70
2024/01/21 08:03:29;;;;;;;70.88;40.58;;;-6.60;99.90;;;;;;5063763;28;20232;-71
2024/01/21 08:06:14;;;;;;;70.35;39.78;;;-6.60;99.90;;;;;;5059896;28;20277;-69
2024/01/21 08:09:00;;;;;;;61.05;36.65;;;-6.40;99.90;;;;;;5053266;28;20206;-70
2024/01/21 08:11:46;;;;;;;60.50;37.95;;;-6.40;99.90;;;;;;5061512;28;20278;-70
2024/01/21 08:14:33;;;;;;;58.70;33.88;;;-6.40;99.90;;;;;;5072558;28;20256;-75
2024/01/21 08:17:20;;;;;;;76.22;38.45;;;-6.20;99.90;;;;;;5067836;28;20205;-69
2024/01/21 08:20:06;;;;;;;76.68;42.33;;;-6.20;99.90;;;;;;5057608;28;20209;-71
2024/01/21 08:22:52;;;;;;;64.68;37.72;;;-6.00;99.90;;;;;;5060705;28;21184;-70
2024/01/21 08:25:38;;;;;;;61.80;35.20;;;-5.90;99.90;;;;;;5063175;28;20670;-69
2024/01/21 08:28:23;;;;;;;53.88;33.38;;;-5.90;99.90;;;;;;5061428;28;20253;-69
2024/01/21 08:31:10;;;;;;;59.13;32.72;;;-5.70;99.90;;;;;;5058250;28;20232;-70
2024/01/21 08:33:56;;;;;;;60.47;33.40;;;-5.60;99.90;;;;;;5064791;28;20205;-70
2024/01/21 08:36:42;;;;;;;64.75;35.47;;;-5.60;99.90;;;;;;5058305;28;20594;-71
2024/01/21 08:39:28;;;;;;;128.30;53.70;;;-5.70;99.90;;;;;;5059875;28;20201;-72
2024/01/21 08:42:13;;;;;;;92.43;41.20;;;-5.60;99.90;;;;;;5059138;28;20532;-69
2024/01/21 08:44:59;;;;;;;75.07;35.78;;;-5.40;99.90;;;;;;5040926;28;20324;-70
2024/01/21 08:47:46;;;;;;;64.43;36.33;;;-5.30;99.90;;;;;;5050777;28;20205;-70
2024/01/21 08:50:32;;;;;;;63.30;38.03;;;-5.20;99.90;;;;;;5058655;28;20208;-70
2024/01/21 08:53:17;;;;;;;70.88;40.70;;;-5.20;99.90;;;;;;5060680;28;20200;-70
2024/01/21 08:56:03;;;;;;;74.22;42.65;;;-5.10;99.90;;;;;;5056683;28;20796;-70
2024/01/21 08:58:49;;;;;;;68.45;39.22;;;-5.10;99.90;;;;;;5061275;28;20331;-70
2024/01/21 09:01:36;;;;;;;70.32;37.60;;;-5.10;99.90;;;;;;5056591;28;20239;-73
2024/01/21 09:04:23;;;;;;;68.97;38.13;;;-5.00;99.90;;;;;;5061797;28;20211;-71
2024/01/21 09:07:08;;;;;;;66.78;37.00;;;-4.90;99.90;;;;;;5058198;28;20286;-70
2024/01/21 09:09:54;;;;;;;71.63;38.85;;;-4.80;99.90;;;;;;5060796;28;20728;-70
2024/01/21 09:12:40;;;;;;;69.68;39.88;;;-4.80;99.90;;;;;;5062997;28;20289;-70
2024/01/21 09:15:25;;;;;;;69.53;40.90;;;-4.70;99.90;;;;;;5062995;28;20279;-71
2024/01/21 09:18:11;;;;;;;69.28;41.55;;;-4.60;99.90;;;;;;5061043;28;20730;-71
2024/01/21 09:20:59;;;;;;;65.70;38.63;;;-4.40;99.90;;;;;;5064259;28;20305;-71
2024/01/21 09:23:45;;;;;;;65.38;39.60;;;-4.30;99.90;;;;;;5044868;28;20229;-71
2024/01/21 09:26:30;;;;;;;72.82;41.30;;;-4.20;99.90;;;;;;5064966;28;20298;-70
2024/01/21 09:29:16;;;;;;;67.85;40.10;;;-4.10;99.90;;;;;;5059705;28;20696;-70
2024/01/21 09:32:02;;;;;;;102.35;54.90;;;-4.20;99.90;;;;;;5060337;28;20709;-71
2024/01/21 09:34:47;;;;;;;100.97;54.63;;;-4.10;99.90;;;;;;5049762;28;20219;-71
2024/01/21 09:37:34;;;;;;;81.68;46.45;;;-4.30;99.90;;;;;;5048660;28;20292;-71
2024/01/21 09:40:20;;;;;;;72.60;40.33;;;-4.30;99.90;;;;;;5047438;28;20205;-70
2024/01/21 09:43:06;;;;;;;61.05;37.20;;;-4.20;99.90;;;;;;5049992;28;20316;-70
2024/01/21 09:45:52;;;;;;;61.05;35.78;;;-4.10;99.90;;;;;;5047754;28;20204;-71
2024/01/21 09:48:39;;;;;;;61.30;35.85;;;-3.90;99.90;;;;;;5052100;28;20209;-73
2024/01/21 09:51:25;;;;;;;63.97;34.20;;;-3.70;99.90;;;;;;5054833;28;20238;-71
2024/01/21 09:54:12;;;;;;;62.60;37.65;;;-3.60;99.90;;;;;;5048710;28;20203;-70
2024/01/21 09:56:59;;;;;;;69.95;38.17;;;-3.50;99.90;;;;;;5054511;28;20696;-72
2024/01/21 09:59:45;;;;;;;66.75;42.13;;;-3.30;99.90;;;;;;5051109;28;20204;-74
2024/01/21 10:02:31;;;;;;;76.22;44.17;;;-3.20;99.90;;;;;;5052501;28;20227;-70
2024/01/21 10:05:17;;;;;;;77.40;44.05;;;-3.20;99.90;;;;;;5048009;28;20624;-74
2024/01/21 10:08:04;;;;;;;79.38;45.72;;;-3.10;99.90;;;;;;5047492;28;20737;-70
2024/01/21 10:10:51;;;;;;;72.07;44.63;;;-3.10;99.90;;;;;;5040333;28;20292;-71
2024/01/21 10:13:38;;;;;;;65.90;40.92;;;-3.00;99.90;;;;;;5056484;28;20684;-72
2024/01/21 10:16:24;;;;;;;70.38;39.15;;;-2.90;99.90;;;;;;5052610;28;20257;-70
2024/01/21 10:19:13;;;;;;;63.13;38.20;;;-2.80;99.90;;;;;;5045258;28;20692;-71
2024/01/21 10:22:09;;;;;;;64.15;37.65;;;-2.80;99.90;;;;;;5057188;28;20232;-71
2024/01/21 10:24:56;;;;;;;56.47;32.50;;;-2.70;99.90;;;;;;5055491;28;20264;-72
2024/01/21 10:27:46;;;;;;;62.72;36.95;;;-2.50;99.90;;;;;;5047936;28;20688;-71
2024/01/21 10:30:32;;;;;;;57.28;33.53;;;-2.40;99.90;;;;;;5043943;28;20206;-70
2024/01/21 10:33:17;;;;;;;62.65;37.70;;;-2.20;99.90;;;;;;5053160;28;20814;-70
2024/01/21 10:36:04;;;;;;;67.35;39.42;;;-2.10;99.90;;;;;;5046264;28;21984;-71
2024/01/21 10:38:50;;;;;;;67.05;40.67;;;-1.90;99.90;;;;;;5044096;28;20333;-71
2024/01/21 10:41:35;;;;;;;63.92;38.20;;;-1.80;99.90;;;;;;5048899;28;20244;-71
2024/01/21 10:44:24;;;;;;;60.63;39.38;;;-1.80;99.90;;;;;;5046982;28;20225;-71
2024/01/21 10:47:10;;;;;;;63.40;38.20;;;-1.70;99.90;;;;;;5041965;28;20789;-71
2024/01/21 10:49:55;;;;;;;59.80;37.67;;;-1.60;99.90;;;;;;5048516;28;20231;-71
2024/01/21 10:52:45;;;;;;;65.07;43.33;;;-1.50;99.90;;;;;;5050812;28;20317;-75
2024/01/21 10:55:30;;;;;;;53.42;35.25;;;-1.50;99.90;;;;;;5052175;28;20298;-70
2024/01/21 10:58:17;;;;;;;61.60;36.63;;;-1.40;99.90;;;;;;5051740;28;20611;-70
2024/01/21 11:01:05;;;;;;;62.28;42.75;;;-1.30;99.90;;;;;;5060270;28;20441;-70
2024/01/21 11:04:03;;;;;;;72.22;48.33;;;-1.10;99.90;;;;;;5063335;28;20277;-70
2024/01/21 11:06:50;;;;;;;70.57;39.88;;;-0.70;99.90;;;;;;5057723;28;20352;-71
2024/01/21 11:09:37;;;;;;;55.67;38.70;;;-0.20;99.90;;;;;;5059493;28;20208;-71
2024/01/21 11:12:23;;;;;;;46.42;28.52;;;0.30;99.90;;;;;;5064179;28;20224;-70
2024/01/21 11:15:30;;;;;;;42.63;28.90;;;0.60;99.90;;;;;;5061765;28;20234;-69
2024/01/21 11:18:17;;;;;;;35.58;21.65;;;1.00;99.90;;;;;;5062938;28;20209;-73
2024/01/21 11:21:03;;;;;;;30.60;20.27;;;1.20;99.90;;;;;;5061628;28;20270;-71
2024/01/21 11:24:00;;;;;;;27.40;19.63;;;1.30;99.90;;;;;;5062603;28;20216;-70
2024/01/21 11:26:48;;;;;;;30.15;19.38;;;1.30;99.90;;;;;;5064265;28;20331;-74
2024/01/21 11:29:34;;;;;;;25.98;18.75;;;1.30;99.90;;;;;;5056705;28;20567;-70
2024/01/21 11:32:25;;;;;;;30.33;19.75;;;1.20;99.90;;;;;;5064353;28;20306;-72
2024/01/21 11:35:16;;;;;;;26.27;19.83;;;1.00;99.90;;;;;;5065803;28;20201;-71
2024/01/21 11:38:02;;;;;;;29.58;18.00;;;1.00;99.90;;;;;;5065469;28;20218;-70
2024/01/21 11:40:53;;;;;;;29.08;19.58;;;1.00;99.90;;;;;;5061546;28;20881;-71
2024/01/21 11:43:39;;;;;;;32.25;18.45;;;1.00;99.90;;;;;;5066442;28;20309;-70
2024/01/21 11:46:25;;;;;;;27.95;19.30;;;0.90;99.90;;;;;;5064606;28;20204;-71
2024/01/21 11:49:11;;;;;;;34.90;21.02;;;1.00;99.90;;;;;;5067049;28;20207;-71
2024/01/21 11:52:00;;;;;;;35.53;21.88;;;1.00;99.90;;;;;;5062912;28;20564;-71
2024/01/21 11:54:45;;;;;;;29.70;19.77;;;1.00;99.90;;;;;;5068914;28;20311;-70
2024/01/21 11:57:31;;;;;;;30.50;20.25;;;1.10;99.90;;;;;;5072786;28;20237;-70
2024/01/21 12:00:17;;;;;;;31.15;20.48;;;1.10;99.90;;;;;;5068609;28;20200;-71
2024/01/21 12:03:03;;;;;;;49.92;29.20;;;1.10;99.90;;;;;;5066162;28;20232;-71
2024/01/21 12:05:49;;;;;;;39.13;22.55;;;1.20;99.90;;;;;;5064984;28;20207;-75
2024/01/21 12:08:41;;;;;;;30.55;19.65;;;1.20;99.90;;;;;;5067891;28;20203;-73
2024/01/21 12:11:27;;;;;;;22.05;14.82;;;1.40;99.90;;;;;;5067930;28;20247;-70
2024/01/21 12:14:13;;;;;;;18.33;12.07;;;1.50;99.90;;;;;;5066637;28;20787;-70
2024/01/21 12:16:59;;;;;;;27.73;16.20;;;1.50;99.90;;;;;;5069150;28;20203;-71
2024/01/21 12:19:46;;;;;;;24.05;16.58;;;1.60;99.90;;;;;;5064247;28;20195;-70
2024/01/21 12:22:39;;;;;;;22.05;12.27;;;1.70;99.90;;;;;;5057914;28;20236;-72
2024/01/21 12:25:27;;;;;;;21.30;11.15;;;1.80;99.90;;;;;;5066089;28;20216;-70
2024/01/21 12:28:13;;;;;;;19.08;11.40;;;1.90;99.90;;;;;;5068858;28;20576;-71
2024/01/21 12:31:00;;;;;;;18.70;11.13;;;2.00;99.90;;;;;;5070689;28;20223;-71
2024/01/21 12:33:46;;;;;;;19.10;11.13;;;2.20;99.90;;;;;;5070886;28;20200;-70
2024/01/21 12:36:33;;;;;;;16.27;9.65;;;2.30;99.90;;;;;;5054460;28;20683;-71
2024/01/21 12:39:21;;;;;;;17.92;11.90;;;2.40;99.90;;;;;;5059724;28;20286;-71
2024/01/21 12:42:08;;;;;;;16.77;10.55;;;2.50;99.90;;;;;;5056329;28;20229;-71
2024/01/21 12:44:53;;;;;;;11.32;8.43;;;2.50;99.90;;;;;;5066905;28;20243;-72
2024/01/21 12:47:39;;;;;;;17.40;10.32;;;2.60;99.90;;;;;;5070387;28;20582;-71
2024/01/21 12:50:25;;;;;;;22.65;10.32;;;2.70;99.90;;;;;;5066871;28;20212;-72
2024/01/21 12:53:10;;;;;;;12.35;8.70;;;2.80;99.90;;;;;;5065137;28;20565;-72
2024/01/21 12:55:56;;;;;;;17.70;9.25;;;2.90;99.90;;;;;;5069478;28;20219;-71
2024/01/21 12:58:43;;;;;;;15.15;9.57;;;2.90;99.90;;;;;;5064228;28;20203;-71
2024/01/21 13:01:29;;;;;;;15.77;10.15;;;2.90;99.90;;;;;;5070067;28;20290;-71
2024/01/21 13:04:15;;;;;;;16.58;9.48;;;2.90;99.90;;;;;;5066716;28;20251;-71
2024/01/21 13:07:00;;;;;;;15.07;9.93;;;3.20;99.90;;;;;;5067540;28;20775;-72
2024/01/21 13:09:46;;;;;;;21.42;9.88;;;3.60;99.90;;;;;;5068580;28;20238;-71
2024/01/21 13:12:31;;;;;;;14.00;9.07;;;4.10;99.90;;;;;;5070391;28;20727;-71
2024/01/21 13:15:19;;;;;;;16.95;8.98;;;4.00;99.90;;;;;;5062011;28;20200;-70
2024/01/21 13:18:05;;;;;;;13.77;9.57;;;3.90;99.90;;;;;;5068182;28;20489;-74
2024/01/21 13:20:50;;;;;;;16.25;9.70;;;3.70;99.90;;;;;;5068708;28;20239;-71
2024/01/21 13:23:36;;;;;;;17.38;10.65;;;3.60;99.90;;;;;;5068117;28;20227;-71
2024/01/21 13:26:21;;;;;;;13.32;9.43;;;3.70;99.90;;;;;;5067166;28;20352;-72
2024/01/21 13:32:12;;;;;;;14.60;9.15;;;4.20;99.90;;;;;;5058182;28;20221;-72
2024/01/21 13:34:57;;;;;;;16.85;10.10;;;4.70;99.90;;;;;;5067964;28;20688;-72
2024/01/21 13:37:44;;;;;;;21.33;9.18;;;5.10;99.90;;;;;;5068092;28;20830;-72
2024/01/21 13:40:30;;;;;;;14.15;9.48;;;5.90;99.90;;;;;;5068119;28;20294;-72
2024/01/21 13:43:16;;;;;;;16.58;9.18;;;6.50;90.30;;;;;;5063489;28;20272;-72
2024/01/21 13:46:01;;;;;;;15.77;8.88;;;7.30;82.30;;;;;;5068344;28;20272;-72
2024/01/21 13:48:48;;;;;;;17.20;8.05;;;7.50;68.60;;;;;;5055838;28;20205;-72
2024/01/21 13:51:34;;;;;;;27.58;11.50;;;7.20;65.50;;;;;;5063180;28;20225;-72
2024/01/21 13:54:20;;;;;;;23.98;11.25;;;6.70;71.20;;;;;;5068259;28;20783;-72
2024/01/21 13:57:07;;;;;;;16.15;9.00;;;6.30;83.30;;;;;;5067008;28;20610;-72
2024/01/21 13:59:52;;;;;;;18.70;9.80;;;5.60;83.20;;;;;;5063979;28;20204;-72
2024/01/21 14:02:38;;;;;;;12.30;7.75;;;5.00;90.10;;;;;;5062353;28;20238;-72
2024/01/21 14:05:25;;;;;;;12.98;7.75;;;4.60;94.30;;;;;;5065414;28;20281;-72
2024/01/21 14:08:11;;;;;;;13.18;7.80;;;4.50;94.20;;;;;;5061813;28;20661;-72
2024/01/21 14:10:57;;;;;;;17.13;9.13;;;4.40;96.50;;;;;;5068523;28;20266;-72